createdAt,value
2023-03-10T00:00:41.658Z,84.04
2023-03-10T00:03:09.546Z,84.67
2023-03-10T00:05:38.393Z,84.33
2023-03-10T00:08:06.916Z,84.13
2023-03-10T00:10:34.769Z,84.28
2023-03-10T00:13:02.738Z,84.31
2023-03-10T00:15:31.657Z,84.10
2023-03-10T00:18:00.895Z,84.58
2023-03-10T00:20:28.874Z,84.48
2023-03-10T00:22:56.811Z,84.77
2023-03-10T00:25:24.636Z,85.09
2023-03-10T00:27:52.720Z,84.67
2023-03-10T00:30:20.858Z,85.18
2023-03-10T00:32:50.269Z,85.25
2023-03-10T00:35:19.724Z,84.92
2023-03-10T00:37:47.875Z,85.30
2023-03-10T00:40:16.457Z,84.73
2023-03-10T00:42:44.886Z,85.34
2023-03-10T00:45:12.927Z,84.77
2023-03-10T00:47:40.780Z,85.37
2023-03-10T00:50:09.776Z,84.97
2023-03-10T00:52:39.263Z,85.23
2023-03-10T00:55:07.499Z,85.04
2023-03-10T00:57:38.375Z,85.46
2023-03-10T01:00:08.210Z,85.35
2023-03-10T01:02:36.161Z,85.18
2023-03-10T01:05:04.266Z,85.33
2023-03-10T01:07:32.084Z,85.37
2023-03-10T01:10:01.588Z,85.25
2023-03-10T01:12:29.574Z,85.06
2023-03-10T01:14:57.514Z,85.17
2023-03-10T01:17:25.491Z,85.30
2023-03-10T01:19:53.381Z,84.79
2023-03-10T01:22:21.199Z,84.76
2023-03-10T01:24:49.423Z,85.26
2023-03-10T01:27:18.752Z,85.28
2023-03-10T01:29:46.588Z,85.44
2023-03-10T01:32:14.620Z,85.53
2023-03-10T01:34:42.640Z,85.41
2023-03-10T01:37:10.450Z,85.58
2023-03-10T01:39:38.497Z,85.47
2023-03-10T01:42:06.876Z,85.55
2023-03-10T01:44:36.068Z,85.31
2023-03-10T01:47:03.999Z,85.11
2023-03-10T01:49:40.554Z,85.36
2023-03-10T01:52:13.801Z,85.30
2023-03-10T01:54:46.618Z,85.58
2023-03-10T01:57:16.419Z,85.28
2023-03-10T01:59:47.058Z,85.04
2023-03-10T02:02:15.322Z,85.47
2023-03-10T02:04:45.181Z,85.26
2023-03-10T02:07:14.189Z,85.61
2023-03-10T02:09:44.769Z,85.20
2023-03-10T02:12:15.081Z,85.47
2023-03-10T02:14:44.427Z,85.59
2023-03-10T02:17:17.278Z,85.27
2023-03-10T02:19:59.333Z,85.34
2023-03-10T02:22:27.833Z,85.12
2023-03-10T02:25:04.785Z,85.70
2023-03-10T02:27:36.293Z,85.41
2023-03-10T02:30:08.424Z,85.58
2023-03-10T02:32:40.614Z,85.80
2023-03-10T02:35:09.323Z,85.57
2023-03-10T02:37:38.317Z,85.47
2023-03-10T02:40:29.932Z,85.72
2023-03-10T02:42:59.986Z,85.27
2023-03-10T02:45:32.991Z,85.70
2023-03-10T02:48:00.984Z,85.32
2023-03-10T02:50:31.376Z,85.73
2023-03-10T02:53:06.611Z,85.34
2023-03-10T02:55:34.700Z,85.14
2023-03-10T02:58:03.950Z,85.38
2023-03-10T03:00:31.958Z,85.52
2023-03-10T03:03:00.144Z,85.43
2023-03-10T03:05:28.123Z,85.38
2023-03-10T03:07:56.002Z,85.31
2023-03-10T03:10:24.209Z,85.32
2023-03-10T03:12:52.172Z,85.13
2023-03-10T03:15:21.628Z,85.04
2023-03-10T03:17:49.546Z,85.32
2023-03-10T03:20:17.831Z,85.33
2023-03-10T03:22:46.791Z,85.43
2023-03-10T03:25:16.744Z,85.34
2023-03-10T03:27:45.362Z,85.55
2023-03-10T03:30:15.803Z,85.75
2023-03-10T03:32:45.420Z,85.71
2023-03-10T03:35:16.171Z,85.52
2023-03-10T03:37:44.984Z,85.65
2023-03-10T03:40:14.855Z,85.92
2023-03-10T03:42:43.029Z,85.75
2023-03-10T03:45:12.654Z,85.69
2023-03-10T03:47:41.058Z,85.64
2023-03-10T03:50:13.435Z,85.72
2023-03-10T03:52:41.798Z,85.75
2023-03-10T03:55:10.499Z,85.77
2023-03-10T03:57:38.673Z,85.89
2023-03-10T04:00:09.348Z,86.02
2023-03-10T04:02:37.267Z,86.14
2023-03-10T04:05:05.989Z,86.16
2023-03-10T04:07:35.481Z,86.23
2023-03-10T04:10:03.365Z,86.12
2023-03-10T04:12:31.347Z,86.21
2023-03-10T04:14:59.349Z,86.10
2023-03-10T04:17:27.157Z,86.29
2023-03-10T04:20:06.623Z,86.08
2023-03-10T04:22:37.047Z,86.23
2023-03-10T04:25:06.156Z,86.01
2023-03-10T04:27:34.458Z,86.42
2023-03-10T04:30:02.366Z,86.31
2023-03-10T04:32:30.350Z,86.28
2023-03-10T04:34:58.185Z,86.04
2023-03-10T04:37:27.307Z,85.91
2023-03-10T04:39:57.265Z,86.49
2023-03-10T04:42:26.697Z,86.79
2023-03-10T04:44:54.728Z,86.39
2023-03-10T04:47:22.843Z,86.62
2023-03-10T04:49:50.987Z,86.91
2023-03-10T04:52:18.830Z,87.05
2023-03-10T04:54:46.803Z,86.77
2023-03-10T04:57:16.315Z,86.77
2023-03-10T04:59:44.255Z,86.71
2023-03-10T05:02:12.155Z,86.80
2023-03-10T05:04:40.692Z,86.92
2023-03-10T05:07:08.530Z,87.32
2023-03-10T05:09:38.011Z,87.29
2023-03-10T05:12:06.724Z,87.07
2023-03-10T05:14:35.945Z,86.86
2023-03-10T05:17:04.090Z,87.17
2023-03-10T05:19:31.986Z,87.53
2023-03-10T05:21:59.789Z,87.52
2023-03-10T05:24:27.788Z,87.49
2023-03-10T05:26:55.790Z,87.75
2023-03-10T05:29:23.604Z,87.55
2023-03-10T05:31:53.017Z,87.51
2023-03-10T05:34:20.962Z,87.79
2023-03-10T05:36:48.758Z,87.88
2023-03-10T05:39:16.738Z,87.58
2023-03-10T05:41:44.630Z,87.89
2023-03-10T05:44:12.427Z,87.57
2023-03-10T05:46:40.814Z,87.37
2023-03-10T05:49:10.141Z,87.92
2023-03-10T05:51:38.036Z,87.86
2023-03-10T05:54:06.667Z,87.72
2023-03-10T05:56:34.609Z,87.87
2023-03-10T05:59:03.003Z,87.70
2023-03-10T06:01:31.470Z,87.48
2023-03-10T06:03:59.713Z,87.97
2023-03-10T06:06:29.030Z,88.14
2023-03-10T06:08:57.687Z,88.06
2023-03-10T06:11:25.739Z,88.15
2023-03-10T06:13:54.077Z,88.33
2023-03-10T06:16:22.066Z,88.70
2023-03-10T06:18:54.477Z,88.71
2023-03-10T06:21:22.787Z,88.76
2023-03-10T06:23:52.377Z,88.78
2023-03-10T06:26:20.224Z,88.88
2023-03-10T06:28:48.529Z,88.97
2023-03-10T06:31:18.433Z,88.95
2023-03-10T06:33:46.623Z,89.04
2023-03-10T06:36:15.296Z,88.67
2023-03-10T06:38:43.338Z,89.39
2023-03-10T06:41:12.951Z,89.11
2023-03-10T06:43:41.324Z,89.20
2023-03-10T06:46:11.857Z,89.23
2023-03-10T06:48:40.442Z,89.62
2023-03-10T06:51:10.063Z,89.55
2023-03-10T06:53:38.263Z,89.87
2023-03-10T06:56:08.388Z,89.91
2023-03-10T06:58:38.553Z,89.93
2023-03-10T07:01:08.070Z,90.08
2023-03-10T07:03:36.624Z,89.91
2023-03-10T07:06:05.645Z,89.74
2023-03-10T07:08:33.538Z,89.63
2023-03-10T07:11:01.416Z,89.62
2023-03-10T07:13:29.323Z,89.45
2023-03-10T07:15:58.640Z,89.50
2023-03-10T07:18:27.905Z,89.50
2023-03-10T07:20:55.854Z,89.23
2023-03-10T07:23:24.432Z,89.48
2023-03-10T07:25:54.360Z,89.57
2023-03-10T07:28:22.296Z,89.59
2023-03-10T07:30:50.412Z,89.30
2023-03-10T07:33:19.737Z,89.31
2023-03-10T07:35:47.729Z,89.48
2023-03-10T07:38:15.667Z,89.33
2023-03-10T07:40:43.493Z,89.10
2023-03-10T07:43:11.463Z,88.99
2023-03-10T07:45:39.762Z,88.64
2023-03-10T07:48:07.905Z,88.69
2023-03-10T07:50:37.226Z,88.56
2023-03-10T07:53:05.237Z,88.71
2023-03-10T07:55:33.240Z,88.63
2023-03-10T07:58:01.548Z,88.62
2023-03-10T08:00:29.823Z,88.43
2023-03-10T08:02:57.619Z,88.78
2023-03-10T08:05:25.653Z,89.08
2023-03-10T08:07:54.997Z,88.47
2023-03-10T08:10:22.817Z,88.94
2023-03-10T08:12:50.708Z,88.40
2023-03-10T08:15:19.010Z,87.97
2023-03-10T08:17:46.800Z,88.05
2023-03-10T08:20:15.226Z,87.90
2023-03-10T08:22:43.213Z,87.85
2023-03-10T08:25:13.008Z,88.20
2023-03-10T08:27:41.699Z,88.89
2023-03-10T08:30:10.809Z,89.34
2023-03-10T08:32:38.701Z,90.39
2023-03-10T08:35:07.676Z,91.22
2023-03-10T08:37:35.709Z,91.77
2023-03-10T08:40:07.766Z,91.48
2023-03-10T08:42:37.207Z,90.33
2023-03-10T08:45:08.376Z,88.23
2023-03-10T08:47:37.115Z,85.30
2023-03-10T08:50:05.574Z,83.18
2023-03-10T08:52:33.731Z,82.13
2023-03-10T08:55:01.585Z,81.38
2023-03-10T08:57:29.882Z,81.55
2023-03-10T08:59:59.125Z,81.66
2023-03-10T09:02:29.521Z,81.72
2023-03-10T09:04:57.602Z,81.72
2023-03-10T09:07:25.441Z,82.52
2023-03-10T09:09:53.343Z,84.06
2023-03-10T09:12:21.316Z,83.50
2023-03-10T09:14:49.115Z,83.86
2023-03-10T09:17:18.445Z,85.36
2023-03-10T09:19:46.432Z,84.59
2023-03-10T09:22:14.468Z,82.31
2023-03-10T09:24:42.318Z,80.23
2023-03-10T09:27:10.358Z,78.98
2023-03-10T09:29:43.172Z,77.66
2023-03-10T09:32:11.967Z,76.87
2023-03-10T09:34:41.614Z,75.15
2023-03-10T09:37:09.438Z,73.23
2023-03-10T09:39:37.737Z,72.00
2023-03-10T09:42:38.840Z,69.46
2023-03-10T09:45:21.314Z,68.24
2023-03-10T09:48:03.198Z,69.98
2023-03-10T09:50:40.028Z,70.38
2023-03-10T09:53:29.833Z,68.15
2023-03-10T09:55:58.894Z,69.72
2023-03-10T09:58:34.051Z,68.54
2023-03-10T10:01:02.744Z,67.85
2023-03-10T10:03:50.135Z,68.74
2023-03-10T10:06:28.343Z,65.19
2023-03-10T10:09:04.750Z,64.97
2023-03-10T10:11:34.381Z,65.29
2023-03-10T10:14:22.454Z,66.03
2023-03-10T10:17:00.738Z,66.40
2023-03-10T10:19:29.690Z,66.64
2023-03-10T10:22:04.334Z,67.16
2023-03-10T10:24:32.246Z,66.89
2023-03-10T10:27:00.169Z,67.14
2023-03-10T10:29:34.788Z,67.13
2023-03-10T10:32:07.753Z,67.40
2023-03-10T10:34:37.828Z,67.27
2023-03-10T10:37:23.123Z,68.42
2023-03-10T10:39:53.139Z,71.05
2023-03-10T10:42:24.284Z,68.61
2023-03-10T10:44:54.767Z,66.54
2023-03-10T10:47:28.391Z,65.27
2023-03-10T10:49:57.884Z,64.19
2023-03-10T10:52:27.734Z,64.23
2023-03-10T10:54:59.343Z,64.81
2023-03-10T10:57:33.873Z,65.54
2023-03-10T11:00:18.643Z,65.68
2023-03-10T11:02:46.925Z,66.27
2023-03-10T11:05:17.447Z,66.84
2023-03-10T11:07:47.653Z,66.95
2023-03-10T11:10:17.672Z,67.01
2023-03-10T11:13:02.963Z,66.89
2023-03-10T11:15:33.861Z,67.12
2023-03-10T11:18:09.230Z,68.16
2023-03-10T11:20:47.496Z,67.17
2023-03-10T11:23:23.761Z,66.08
2023-03-10T11:25:55.772Z,66.20
2023-03-10T11:28:33.961Z,65.97
2023-03-10T11:31:12.714Z,65.63
2023-03-10T11:33:48.791Z,66.09
2023-03-10T11:36:29.512Z,66.08
2023-03-10T11:39:11.035Z,66.17
2023-03-10T11:41:45.046Z,66.33
2023-03-10T11:44:23.852Z,66.82
2023-03-10T11:47:01.041Z,67.52
2023-03-10T11:49:36.750Z,67.64
2023-03-10T11:52:11.866Z,67.69
2023-03-10T11:54:46.056Z,68.36
2023-03-10T11:57:18.202Z,69.96
2023-03-10T11:59:51.493Z,71.13
2023-03-10T12:02:25.344Z,71.87
2023-03-10T12:04:59.038Z,72.04
2023-03-10T12:07:30.274Z,72.44
2023-03-10T12:10:01.848Z,73.27
2023-03-10T12:12:33.411Z,73.71
2023-03-10T12:15:04.024Z,73.26
2023-03-10T12:17:32.428Z,74.17
2023-03-10T12:20:10.812Z,74.16
2023-03-10T12:22:40.310Z,74.05
2023-03-10T12:25:41.963Z,75.08
2023-03-10T12:28:25.416Z,75.11
2023-03-10T12:30:57.488Z,75.02
2023-03-10T12:33:46.337Z,75.41
2023-03-10T12:36:19.855Z,75.68
2023-03-10T12:38:50.663Z,74.91
2023-03-10T12:41:45.643Z,75.50
2023-03-10T12:44:51.618Z,75.04
2023-03-10T12:47:37.109Z,74.57
2023-03-10T12:50:20.168Z,72.83
2023-03-10T12:52:52.805Z,73.64
2023-03-10T12:55:24.305Z,74.21
2023-03-10T12:58:03.737Z,74.07
2023-03-10T13:00:39.690Z,74.06
2023-03-10T13:03:19.813Z,74.15
2023-03-10T13:06:07.144Z,74.59
2023-03-10T13:08:42.195Z,74.80
2023-03-10T13:11:23.490Z,75.86
2023-03-10T13:13:54.974Z,76.18
2023-03-10T13:16:23.105Z,77.46
2023-03-10T13:18:53.715Z,77.25
2023-03-10T13:21:26.996Z,77.05
2023-03-10T13:23:55.088Z,76.96
2023-03-10T13:26:24.346Z,77.34
2023-03-10T13:28:53.747Z,77.36
2023-03-10T13:31:24.418Z,77.49
2023-03-10T13:33:55.149Z,77.99
2023-03-10T13:36:31.224Z,77.68
2023-03-10T13:38:59.764Z,77.86
2023-03-10T13:41:27.764Z,77.61
2023-03-10T13:43:56.242Z,78.39
2023-03-10T13:46:27.735Z,78.12
2023-03-10T13:49:03.774Z,78.25
2023-03-10T13:51:33.642Z,78.52
2023-03-10T13:54:17.934Z,79.43
2023-03-10T13:56:47.087Z,79.09
2023-03-10T13:59:16.296Z,79.71
2023-03-10T14:01:49.985Z,79.67
2023-03-10T14:04:38.718Z,80.35
2023-03-10T14:07:11.322Z,80.17
2023-03-10T14:09:39.650Z,80.30
2023-03-10T14:12:08.645Z,80.55
2023-03-10T14:14:38.671Z,80.39
2023-03-10T14:17:08.042Z,80.69
2023-03-10T14:19:51.108Z,81.43
2023-03-10T14:22:30.562Z,81.39
2023-03-10T14:25:00.339Z,80.46
2023-03-10T14:27:28.911Z,80.10
2023-03-10T14:29:59.019Z,79.71
2023-03-10T14:32:27.199Z,78.47
2023-03-10T14:34:56.568Z,78.62
2023-03-10T14:37:24.994Z,77.43
2023-03-10T14:39:52.794Z,74.72
2023-03-10T14:42:26.266Z,72.97
2023-03-10T14:44:54.490Z,71.18
2023-03-10T14:47:22.608Z,69.38
2023-03-10T14:49:50.885Z,67.79
2023-03-10T14:52:20.429Z,66.83
2023-03-10T14:54:48.604Z,65.89
2023-03-10T14:57:19.957Z,64.35
2023-03-10T14:59:47.994Z,64.18
2023-03-10T15:02:21.640Z,62.86
2023-03-10T15:04:50.022Z,62.21
2023-03-10T15:07:18.682Z,61.79
2023-03-10T15:09:49.562Z,60.57
2023-03-10T15:12:20.972Z,60.16
2023-03-10T15:14:53.939Z,59.28
2023-03-10T15:17:22.414Z,58.95
2023-03-10T15:19:50.248Z,58.13
2023-03-10T15:22:18.127Z,58.72
2023-03-10T15:24:47.385Z,58.86
2023-03-10T15:27:15.721Z,58.92
2023-03-10T15:29:43.580Z,59.19
2023-03-10T15:32:11.669Z,59.73
2023-03-10T15:34:39.517Z,60.30
2023-03-10T15:37:08.686Z,60.80
2023-03-10T15:39:37.377Z,61.60
2023-03-10T15:42:06.926Z,62.23
2023-03-10T15:44:34.790Z,62.32
2023-03-10T15:47:02.837Z,62.08
2023-03-10T15:49:30.740Z,62.85
2023-03-10T15:51:58.650Z,62.27
2023-03-10T15:54:26.598Z,62.47
2023-03-10T15:56:54.439Z,62.70
2023-03-10T15:59:23.868Z,63.02
2023-03-10T16:01:52.701Z,63.23
2023-03-10T16:04:21.249Z,63.78
2023-03-10T16:06:49.148Z,64.17
2023-03-10T16:09:17.265Z,64.53
2023-03-10T16:11:45.066Z,64.36
2023-03-10T16:14:12.861Z,65.37
2023-03-10T16:16:42.218Z,64.88
2023-03-10T16:19:10.069Z,65.57
2023-03-10T16:21:37.867Z,65.80
2023-03-10T16:24:05.997Z,65.66
2023-03-10T16:26:33.833Z,65.72
2023-03-10T16:29:01.676Z,66.33
2023-03-10T16:31:29.721Z,66.28
2023-03-10T16:33:59.460Z,66.48
2023-03-10T16:36:29.353Z,67.11
2023-03-10T16:38:58.581Z,67.51
2023-03-10T16:41:28.613Z,67.02
2023-03-10T16:43:57.646Z,67.75
2023-03-10T16:46:30.120Z,68.02
2023-03-10T16:49:00.875Z,67.90
2023-03-10T16:51:30.002Z,68.44
2023-03-10T16:53:59.540Z,68.68
2023-03-10T16:56:29.167Z,69.00
2023-03-10T16:58:57.895Z,69.05
2023-03-10T17:01:26.193Z,69.67
2023-03-10T17:03:55.582Z,69.75
2023-03-10T17:06:28.193Z,70.44
2023-03-10T17:08:58.954Z,70.81
2023-03-10T17:11:29.529Z,70.82
2023-03-10T17:13:59.669Z,70.28
2023-03-10T17:16:29.695Z,70.99
2023-03-10T17:18:59.694Z,71.16
2023-03-10T17:21:33.341Z,70.78
2023-03-10T17:24:01.324Z,70.84
2023-03-10T17:26:29.219Z,70.81
2023-03-10T17:28:57.221Z,71.58
2023-03-10T17:31:27.899Z,71.55
2023-03-10T17:33:58.447Z,71.29
2023-03-10T17:36:27.000Z,71.50
2023-03-10T17:38:57.943Z,71.67
2023-03-10T17:41:26.118Z,71.87
2023-03-10T17:43:54.915Z,72.46
2023-03-10T17:46:24.922Z,72.42
2023-03-10T17:48:53.019Z,72.18
2023-03-10T17:51:23.145Z,72.35
2023-03-10T17:53:51.832Z,72.65
2023-03-10T17:56:22.060Z,72.81
2023-03-10T17:58:50.083Z,72.94
2023-03-10T18:01:20.225Z,72.72
2023-03-10T18:03:48.746Z,72.49
2023-03-10T18:06:19.797Z,72.66
2023-03-10T18:08:50.185Z,72.67
2023-03-10T18:11:19.320Z,72.91
2023-03-10T18:13:49.185Z,73.11
2023-03-10T18:16:19.136Z,72.86
2023-03-10T18:18:47.352Z,72.92
2023-03-10T18:21:16.986Z,73.24
2023-03-10T18:23:46.140Z,73.66
2023-03-10T18:26:16.056Z,74.11
2023-03-10T18:28:44.587Z,74.41
2023-03-10T18:31:25.325Z,74.86
2023-03-10T18:33:53.410Z,74.85
2023-03-10T18:36:24.080Z,75.17
2023-03-10T18:38:54.311Z,75.29
2023-03-10T18:41:27.485Z,75.48
2023-03-10T18:43:55.485Z,75.85
2023-03-10T18:46:25.024Z,76.18
2023-03-10T18:48:57.053Z,76.56
2023-03-10T18:51:25.705Z,76.71
2023-03-10T18:53:54.585Z,76.92
2023-03-10T18:56:23.816Z,77.00
2023-03-10T18:58:51.867Z,77.26
2023-03-10T19:01:19.739Z,77.38
2023-03-10T19:03:49.018Z,77.55
2023-03-10T19:06:17.232Z,77.89
2023-03-10T19:08:45.176Z,78.26
2023-03-10T19:11:13.246Z,78.64
2023-03-10T19:13:44.187Z,78.58
2023-03-10T19:16:13.150Z,78.92
2023-03-10T19:18:43.346Z,79.20
2023-03-10T19:21:24.515Z,79.36
2023-03-10T19:23:53.716Z,79.46
2023-03-10T19:26:24.919Z,79.64
2023-03-10T19:29:04.590Z,79.80
2023-03-10T19:31:35.175Z,79.71
2023-03-10T19:34:03.356Z,80.01
2023-03-10T19:36:33.073Z,79.81
2023-03-10T19:39:00.984Z,80.68
2023-03-10T19:41:28.813Z,80.51
2023-03-10T19:43:56.858Z,80.50
2023-03-10T19:46:24.764Z,80.75
2023-03-10T19:48:52.627Z,80.72
2023-03-10T19:51:22.901Z,81.13
2023-03-10T19:53:53.132Z,81.11
2023-03-10T19:56:21.923Z,81.30
2023-03-10T19:58:50.538Z,81.51
2023-03-10T20:01:24.348Z,81.67
2023-03-10T20:03:53.189Z,81.73
2023-03-10T20:06:21.811Z,82.07
2023-03-10T20:08:49.794Z,82.00
2023-03-10T20:11:19.830Z,82.37
2023-03-10T20:13:48.308Z,82.28
2023-03-10T20:16:17.545Z,82.39
2023-03-10T20:18:45.637Z,82.43
2023-03-10T20:21:13.783Z,82.65
2023-03-10T20:23:41.780Z,82.92
2023-03-10T20:26:11.311Z,83.17
2023-03-10T20:28:40.707Z,83.04
2023-03-10T20:31:08.976Z,83.12
2023-03-10T20:33:37.654Z,83.37
2023-03-10T20:36:08.583Z,83.44
2023-03-10T20:38:36.564Z,83.30
2023-03-10T20:41:04.948Z,83.30
2023-03-10T20:43:33.066Z,83.54
2023-03-10T20:46:02.316Z,83.61
2023-03-10T20:48:30.359Z,83.40
2023-03-10T20:50:58.629Z,83.95
2023-03-10T20:53:28.556Z,83.94
2023-03-10T20:55:56.606Z,84.37
2023-03-10T20:58:24.435Z,84.51
2023-03-10T21:00:52.370Z,84.14
2023-03-10T21:03:22.565Z,84.42
2023-03-10T21:05:50.514Z,84.44
2023-03-10T21:08:18.416Z,84.52
2023-03-10T21:10:48.897Z,84.78
2023-03-10T21:13:17.200Z,84.96
2023-03-10T21:15:45.095Z,85.08
2023-03-10T21:18:13.141Z,84.74
2023-03-10T21:20:42.716Z,85.09
2023-03-10T21:23:10.541Z,85.03
2023-03-10T21:25:38.743Z,85.17
2023-03-10T21:28:06.580Z,85.25
2023-03-10T21:30:35.322Z,85.43
2023-03-10T21:33:03.402Z,85.25
2023-03-10T21:35:34.369Z,85.47
2023-03-10T21:38:04.004Z,85.64
2023-03-10T21:40:32.232Z,85.78
2023-03-10T21:43:02.568Z,85.88
2023-03-10T21:45:33.590Z,85.80
2023-03-10T21:48:03.102Z,85.64
2023-03-10T21:50:31.149Z,85.83
2023-03-10T21:52:59.378Z,86.36
2023-03-10T21:55:29.685Z,85.94
2023-03-10T21:57:57.830Z,86.06
2023-03-10T22:00:26.009Z,86.36
2023-03-10T22:02:54.368Z,86.31
2023-03-10T22:05:22.641Z,85.83
2023-03-10T22:07:51.320Z,86.71
2023-03-10T22:10:19.816Z,86.05
2023-03-10T22:12:49.084Z,86.31
2023-03-10T22:15:19.665Z,86.27
2023-03-10T22:17:48.106Z,86.06
2023-03-10T22:20:18.482Z,86.13
2023-03-10T22:22:46.664Z,86.52
2023-03-10T22:25:15.722Z,85.97
2023-03-10T22:27:44.872Z,85.95
2023-03-10T22:30:15.097Z,86.18
2023-03-10T22:32:43.044Z,85.93
2023-03-10T22:35:11.254Z,86.17
2023-03-10T22:37:40.127Z,86.16
2023-03-10T22:40:10.222Z,86.84
2023-03-10T22:42:39.010Z,85.79
2023-03-10T22:45:08.625Z,84.94
2023-03-10T22:47:37.892Z,84.93
2023-03-10T22:50:06.502Z,85.31
2023-03-10T22:52:34.638Z,85.01
2023-03-10T22:55:02.450Z,85.40
2023-03-10T22:57:30.281Z,85.60
2023-03-10T22:59:58.469Z,85.71
2023-03-10T23:02:26.322Z,85.28
2023-03-10T23:04:55.512Z,85.45
2023-03-10T23:07:23.552Z,85.28
2023-03-10T23:09:51.400Z,85.49
2023-03-10T23:12:19.244Z,85.34
2023-03-10T23:14:47.271Z,85.66
2023-03-10T23:17:15.135Z,85.58
2023-03-10T23:19:42.970Z,85.45
2023-03-10T23:22:12.361Z,85.38
2023-03-10T23:24:40.172Z,85.74
2023-03-10T23:27:07.996Z,85.81
2023-03-10T23:29:35.978Z,85.62
2023-03-10T23:32:03.798Z,85.58
2023-03-10T23:34:31.592Z,85.49
2023-03-10T23:36:59.859Z,85.86
2023-03-10T23:39:29.098Z,85.67
2023-03-10T23:41:56.971Z,85.43
2023-03-10T23:44:25.090Z,85.39
2023-03-10T23:46:53.177Z,85.65
2023-03-10T23:49:22.201Z,85.88
2023-03-10T23:51:52.676Z,85.69
2023-03-10T23:54:22.443Z,85.58
2023-03-10T23:56:52.034Z,85.49
2023-03-10T23:59:19.987Z,85.47
